Date,TemperatureHighF,TemperatureAvgF,TemperatureLowF,DewpointHighF,DewpointAvgF,DewpointLowF,HumidityHigh,HumidityAvg,HumidityLow,PressureMaxIn,PressureMinIn,WindSpeedMaxMPH,WindSpeedAvgMPH,GustSpeedMaxMPH,PrecipitationSumIn
2013-1-1,51.6,44.1,39.0,48.8,40.4,37.2,99,88,60,30.10,29.55,7,4,11,0.15
2013-1-2,52.3,45.4,37.8,52.1,44.6,37.4,99,97,87,30.38,30.10,7,4,12,0.02
2013-1-3,55.2,52.3,50.4,52.1,51.3,50.1,99,97,89,30.68,30.38,7,4,10,0.00
2013-1-4,52.2,50.5,47.3,49.8,47.7,45.5,99,90,80,30.70,30.66,7,4,13,0.00
2013-1-5,52.5,49.5,46.2,51.7,48.6,46.0,99,97,90,30.66,30.57,7,3,10,0.00
2013-1-6,48.6,45.8,43.5,48.3,45.5,43.3,99,99,98,30.58,30.45,6,3,9,0.01
2013-1-7,49.8,47.5,45.3,48.2,46.8,45.1,99,97,92,30.45,30.30,7,5,11,0.00
2013-1-8,55.8,51.0,48.7,50.5,48.7,47.2,99,92,79,30.32,30.24,8,5,12,0.00
2013-1-9,50.0,49.6,49.1,49.7,49.4,48.8,99,99,99,30.24,30.21,4,2,5,0.07
2013-1-10,40.6,37.2,34.0,39.3,36.6,33.7,99,98,94,30.08,29.97,5,2,5,0.00
2013-1-11,54.3,38.0,31.8,46.7,36.0,31.6,99,93,63,30.14,29.95,4,1,4,0.00
2013-1-12,42.3,39.7,37.4,39.7,35.3,28.1,99,85,57,30.04,29.89,14,6,14,0.15
2013-1-13,43.0,37.1,33.1,34.1,30.4,28.7,84,77,64,30.19,30.04,8,3,8,0.00
2013-1-14,38.3,34.4,32.0,38.0,33.2,28.9,99,95,85,30.15,29.67,13,3,13,0.26
2013-1-15,39.7,34.3,26.2,35.3,32.4,26.0,99,93,75,29.91,29.67,7,3,14,0.00
2013-1-16,40.3,30.1,24.8,33.8,28.8,24.6,99,95,75,30.07,29.88,4,2,6,0.01
2013-1-17,47.1,32.6,22.6,37.3,28.5,22.4,99,86,52,30.13,29.93,3,1,4,0.00
2013-1-18,35.8,31.7,29.3,31.0,29.6,27.7,99,92,76,29.93,29.47,8,5,15,0.00
2013-1-19,34.5,32.8,31.3,33.8,31.3,28.4,99,94,85,29.51,29.44,8,5,13,0.00
2013-1-20,34.0,32.2,30.6,33.7,31.6,28.9,99,98,89,29.51,29.32,8,2,14,0.00
2013-1-21,43.0,32.3,25.2,32.3,30.3,24.9,99,93,65,29.54,29.31,3,1,4,0.08
2013-1-22,37.4,30.4,22.1,36.6,29.4,21.9,99,96,83,29.69,29.54,9,4,14,0.26
2013-1-23,37.8,36.5,35.6,34.4,33.4,32.4,92,88,82,29.85,29.74,9,6,14,0.00
2013-1-24,37.0,35.3,34.0,34.1,31.5,28.2,99,86,70,30.19,29.85,6,3,10,0.00
2013-1-25,38.3,35.2,31.5,37.3,31.5,28.9,98,87,76,30.17,29.62,7,3,12,0.01
2013-1-26,51.8,42.9,36.5,45.9,40.3,36.2,99,91,65,29.88,29.59,13,6,22,0.43
2013-1-27,54.3,47.6,41.5,51.4,42.2,35.1,99,83,49,29.68,29.33,15,10,24,1.67
2013-1-28,52.7,45.7,37.8,50.8,42.8,36.5,99,90,78,29.87,29.58,21,10,30,10.05
2013-1-29,57.4,54.7,50.2,55.8,53.2,47.9,99,95,83,29.70,29.61,20,12,29,5.62
2013-1-30,57.9,51.6,45.5,55.2,44.6,36.3,99,79,47,30.10,29.56,18,10,28,0.73
2013-1-31,55.2,49.7,46.2,48.7,42.4,38.4,99,77,56,30.10,29.85,15,10,23,0.48
2013-2-1,48.0,43.4,38.3,45.1,41.4,37.6,99,93,80,29.90,29.50,10,3,15,0.31
2013-2-2,47.1,39.8,31.5,40.9,32.4,26.4,99,76,55,30.30,29.64,9,5,14,0.00
2013-2-3,50.2,42.3,30.2,48.9,39.5,27.4,97,90,80,30.31,29.95,12,5,21,0.00
2013-2-4,54.9,49.4,44.2,49.0,40.9,33.6,95,74,45,29.99,29.78,12,8,17,0.00
2013-2-5,46.6,41.3,36.3,40.5,33.7,24.7,99,76,42,29.78,29.38,16,8,24,0.32
2013-2-6,44.8,41.0,36.3,41.0,35.1,28.8,97,80,66,30.11,29.40,11,6,19,0.11
2013-2-7,46.8,37.9,31.5,38.0,32.0,27.8,99,80,54,30.16,30.03,6,3,11,0.07
2013-2-8,49.5,39.0,32.0,38.3,34.4,29.6,99,85,49,30.19,30.07,7,3,11,0.00
2013-2-9,40.3,38.0,34.9,38.4,36.4,32.5,99,94,84,30.21,29.91,5,2,9,0.05
2013-2-10,42.3,39.1,34.2,42.0,38.8,33.9,99,99,97,29.91,29.30,7,4,14,0.64
2013-2-11,36.5,35.0,33.6,36.2,34.8,33.4,99,99,99,29.81,29.33,7,4,11,0.14
2013-2-12,37.4,35.9,34.7,35.4,31.3,28.3,99,84,74,30.18,29.81,5,4,12,0.00
2013-2-13,40.8,35.9,34.2,40.6,30.0,23.8,99,80,60,30.25,30.03,10,4,13,0.01
2013-2-14,59.4,48.2,41.2,49.9,43.5,39.3,99,85,53,30.03,29.78,12,5,19,0.07
2013-2-15,57.6,43.9,34.7,43.5,37.4,34.1,99,80,48,30.25,30.03,7,2,11,0.00
2013-2-16,54.0,44.5,34.2,41.8,36.5,30.8,96,76,41,30.30,30.25,3,1,5,0.00
2013-2-17,57.2,41.0,29.7,46.2,35.1,29.4,99,84,35,30.26,30.15,7,2,9,0.00
2013-2-18,54.3,40.7,32.4,39.9,35.6,31.4,99,85,48,30.19,30.15,7,3,11,0.02
2013-2-19,60.1,39.5,26.4,39.4,31.5,26.2,99,78,35,30.19,30.09,3,1,5,0.00
2013-2-20,34.9,34.9,34.9,31.1,31.1,31.1,86,86,86,30.13,30.13,0,0,0,0.00
2013-2-21,34.9,34.9,34.9,31.1,31.1,31.1,86,86,86,30.13,30.13,0,0,0,0.00
2013-2-22,34.9,34.9,34.9,31.1,31.1,31.1,86,86,86,30.13,30.13,0,0,0,0.00
2013-2-23,34.9,34.9,34.9,31.1,31.1,31.1,86,86,86,30.13,30.13,0,0,0,0.00
2013-2-24,37.0,35.7,34.9,31.1,29.0,26.6,86,77,68,30.32,30.13,11,3,11,0.00
2013-2-25,41.0,37.8,35.4,37.6,34.3,29.6,94,87,78,30.43,30.30,10,5,14,0.00
2013-2-26,41.5,39.9,37.6,40.8,39.2,36.7,99,97,92,30.61,30.42,8,6,14,0.26
2013-2-27,40.1,38.7,37.4,39.0,37.8,36.9,98,96,94,30.61,30.61,7,6,11,0.00
2013-2-28,48.2,40.8,35.4,39.1,36.2,33.9,94,84,68,30.53,30.38,14,5,14,0.00
2013-3-1,45.3,41.4,37.4,42.7,35.9,31.5,99,82,64,30.46,30.40,8,5,13,0.02
2013-3-2,47.7,38.5,28.2,32.7,30.9,26.7,95,75,55,30.45,30.33,6,3,11,0.00
2013-3-3,49.5,37.8,25.2,38.1,33.7,24.9,99,86,62,30.33,30.15,8,3,11,0.00
2013-3-4,53.8,41.4,33.1,38.5,36.1,32.3,99,83,53,30.15,29.78,9,5,12,0.00
2013-3-5,67.3,47.7,30.6,47.6,37.9,30.3,99,74,38,29.78,29.62,6,2,9,0.00
2013-3-6,58.8,51.1,45.9,45.4,43.5,40.4,91,76,59,29.62,29.55,6,3,10,0.00
2013-3-7,51.3,48.2,45.3,50.4,47.8,45.0,99,98,95,29.55,29.41,6,3,8,0.26
2013-3-8,51.3,49.5,48.0,51.0,49.2,47.8,99,99,99,29.58,29.42,5,2,7,0.38
2013-3-9,48.0,44.4,39.4,47.6,43.3,36.7,99,96,88,29.71,29.58,4,2,6,0.04
2013-3-10,40.1,37.4,34.7,36.2,33.6,29.7,92,86,80,29.78,29.70,13,7,21,0.12
2013-3-11,34.7,32.2,30.0,30.0,25.8,21.6,87,77,62,29.79,29.75,17,12,28,0.01
2013-3-12,43.2,35.7,29.5,34.2,22.9,14.6,92,62,36,29.86,29.77,15,9,24,0.00
2013-3-13,49.8,38.7,31.6,34.0,30.0,24.6,95,73,41,30.00,29.83,7,3,11,0.00
2013-3-14,53.6,39.2,27.1,34.4,26.3,18.6,99,66,25,30.07,29.97,6,3,9,0.00
2013-3-15,48.7,44.0,38.7,44.3,39.6,26.2,98,85,66,29.97,29.59,21,10,26,5.03
2013-3-16,48.6,45.0,43.0,44.0,42.8,40.0,99,92,83,29.59,29.32,20,11,30,4.59
2013-3-17,43.0,41.6,40.1,39.8,39.2,38.2,93,91,89,29.36,29.35,9,6,12,0.00
2013-3-18,49.3,37.9,29.5,45.3,37.2,29.2,99,98,82,29.39,29.25,8,1,8,0.33
2013-3-19,53.4,41.9,35.1,40.8,38.3,34.0,99,88,54,29.55,29.39,6,2,8,0.02
2013-3-20,47.7,40.7,37.2,40.3,37.6,35.3,99,89,70,30.05,29.55,6,3,9,0.00
2013-3-21,46.6,40.6,33.4,36.5,34.2,32.5,99,79,59,30.07,29.96,9,5,14,0.02
2013-3-22,43.3,39.7,36.9,38.2,36.0,33.4,97,87,75,29.96,29.77,16,11,22,1.10
2013-3-23,39.0,35.5,34.0,37.2,35.2,33.7,99,99,92,29.91,29.78,12,9,18,1.13
2013-3-24,35.8,33.7,32.5,34.6,29.2,23.5,99,84,61,29.98,29.90,12,9,18,0.01
2013-3-25,35.6,34.9,33.8,26.8,25.3,23.5,73,68,62,30.01,29.95,13,9,20,0.30
2013-3-26,35.8,35.1,33.8,27.5,25.0,23.1,74,66,60,29.98,29.92,13,8,21,0.04
2013-3-27,42.3,36.4,32.0,27.9,25.2,22.5,83,64,45,29.93,29.89,10,6,15,0.00
2013-3-28,42.4,36.7,28.4,31.5,25.5,19.4,95,65,46,29.99,29.89,8,4,14,0.02
2013-3-29,45.0,37.2,28.0,28.6,25.5,21.1,84,64,42,29.97,29.83,9,5,14,0.01
2013-3-30,44.8,38.3,33.6,33.4,30.0,25.4,87,73,50,30.02,29.82,10,5,14,0.01
2013-3-31,45.9,36.0,24.4,35.9,26.1,21.1,99,70,44,30.03,29.95,9,4,12,0.00
2013-4-1,46.6,38.3,33.8,31.3,26.8,21.4,84,65,39,29.94,29.88,17,9,24,0.00
2013-4-2,49.3,40.2,32.2,31.4,22.9,9.2,90,55,20,30.10,29.93,13,8,20,0.00
2013-4-3,40.6,37.5,32.2,32.3,26.6,22.3,94,66,50,30.10,30.03,13,8,21,0.00
2013-4-4,39.0,36.9,34.5,35.4,30.2,24.4,97,77,61,30.03,29.94,11,8,18,0.05
2013-4-5,47.1,40.5,36.0,33.1,27.4,18.1,83,62,33,30.15,29.93,13,8,21,0.00
2013-4-6,57.2,43.2,32.2,34.0,28.2,19.8,98,61,23,30.33,30.16,8,4,12,0.00
2013-4-7,56.7,42.9,26.2,39.6,24.2,2.4,96,55,11,30.33,29.93,6,2,9,0.00
2013-4-8,52.7,44.2,39.2,37.5,32.4,24.0,86,66,34,29.92,29.60,12,8,15,0.00
2013-4-9,49.6,44.0,39.2,44.5,41.5,37.6,99,91,77,29.59,29.42,8,5,11,0.07
2013-4-10,55.0,45.9,38.1,44.7,41.1,36.7,99,84,60,29.76,29.47,8,4,12,0.19
2013-4-11,45.1,45.0,44.4,44.9,44.7,44.2,99,99,99,29.46,29.40,11,9,16,0.08
2013-4-12,55.2,49.2,45.1,52.6,47.9,44.6,99,95,82,29.78,29.34,14,5,14,0.63
2013-4-13,55.6,49.1,38.7,53.5,46.9,38.3,99,92,71,29.96,29.80,12,6,19,0.99
2013-4-14,69.6,60.2,53.6,54.5,50.4,46.9,99,72,46,30.01,29.93,18,11,27,0.19
2013-4-15,61.3,56.1,50.7,50.4,48.5,46.2,89,76,63,30.11,30.00,12,8,17,0.00
2013-4-16,64.2,55.7,49.5,50.5,46.2,40.5,97,72,43,30.14,29.96,16,10,23,0.00
2013-4-17,67.8,57.4,48.9,54.4,51.0,47.3,99,81,53,30.15,29.83,17,9,22,0.00
2013-4-18,59.7,52.6,47.3,50.9,41.7,33.9,92,67,48,30.13,29.85,17,12,30,0.27
2013-4-19,60.8,50.6,43.3,44.5,39.8,30.8,91,69,32,30.55,30.14,8,5,14,0.00
2013-4-20,62.2,47.4,32.5,47.0,31.5,20.2,99,62,22,30.60,30.43,8,3,12,0.00
2013-4-21,63.0,48.3,30.4,42.6,33.3,25.8,99,63,25,30.42,30.07,8,3,14,0.00
2013-4-22,61.3,52.1,44.2,49.1,44.3,37.6,99,77,42,30.08,30.00,11,6,17,0.00
2013-4-23,75.4,62.0,51.1,51.2,47.6,40.9,98,64,30,30.26,30.03,8,4,14,0.00
2013-4-24,70.2,60.3,47.7,55.3,51.8,46.0,98,75,51,30.31,30.24,9,5,15,0.02
2013-4-25,77.5,63.2,50.5,56.2,51.4,44.2,99,70,32,30.30,30.05,17,6,17,0.09
2013-4-26,73.6,57.9,50.5,56.2,52.9,49.2,99,85,50,30.31,30.10,13,4,13,0.08
2013-4-27,77.5,61.2,39.7,53.6,45.2,32.6,97,59,32,30.15,30.00,17,6,17,0.28
2013-4-28,57.2,46.6,32.7,40.0,33.7,28.2,99,65,37,30.14,29.95,11,5,18,0.01
2013-4-29,62.6,53.2,45.9,45.5,35.9,28.0,92,56,28,30.21,29.92,11,6,17,0.09
2013-4-30,63.9,51.4,39.2,41.3,35.7,26.1,91,59,24,30.35,30.21,10,5,17,0.00
2013-5-1,68.2,52.9,40.3,43.2,34.0,15.5,96,58,13,30.35,30.19,8,5,14,0.00
2013-5-2,71.1,54.7,35.8,36.2,23.0,1.2,81,38,10,30.25,30.19,7,4,14,0.00
2013-5-3,74.1,56.7,36.3,43.3,35.8,23.3,91,52,15,30.23,30.08,8,3,13,0.00
2013-5-4,66.9,55.7,47.1,51.6,41.8,31.9,87,63,29,30.18,30.03,14,8,21,0.20
2013-5-5,70.0,58.6,42.3,51.8,46.8,40.1,96,67,44,30.25,30.19,7,3,11,0.00
2013-5-6,77.7,63.5,51.4,52.1,47.4,42.3,87,59,29,30.22,30.09,6,2,11,0.00
2013-5-7,77.4,62.0,43.0,52.3,43.0,35.3,97,55,22,30.14,29.92,8,3,11,0.00
2013-5-8,65.8,58.3,52.9,58.2,51.2,45.4,99,78,57,29.91,29.74,12,7,17,0.18
2013-5-9,59.5,52.6,45.5,49.8,43.9,37.9,96,74,46,29.89,29.73,22,13,33,1.67
2013-5-10,68.0,56.3,50.5,49.8,47.3,40.8,90,74,37,29.98,29.73,13,10,19,0.00
2013-5-11,57.9,51.2,44.1,52.0,45.3,38.9,99,82,54,29.97,29.84,12,7,21,0.30
2013-5-12,62.8,51.6,42.1,53.3,44.1,34.7,99,79,35,30.06,29.95,12,7,18,0.02
2013-5-13,61.9,55.2,48.7,53.0,43.4,34.2,99,68,37,29.96,29.85,14,8,21,0.05
2013-5-14,54.0,49.4,46.0,50.5,44.7,39.9,99,84,60,29.87,29.28,13,6,18,0.26
2013-5-15,61.0,49.8,45.1,44.6,41.3,35.9,93,74,39,29.58,29.20,22,10,27,0.26
2013-5-16,65.5,49.7,35.6,46.9,39.0,30.3,99,71,29,29.60,29.52,6,2,9,0.00
2013-5-17,58.3,50.6,39.6,47.3,43.5,38.8,99,78,60,29.85,29.61,5,2,8,0.00
2013-5-18,63.5,55.2,47.8,46.0,44.2,42.3,86,68,47,29.84,29.76,6,2,11,0.00
2013-5-19,72.1,58.9,46.8,50.1,47.1,44.7,97,68,40,29.93,29.82,7,2,12,0.00
2013-5-20,63.9,58.7,53.2,59.3,55.3,49.2,96,89,81,29.94,29.88,6,3,11,0.01
2013-5-21,65.1,58.0,54.9,57.7,51.6,48.3,89,80,56,30.11,29.95,5,3,11,0.00
2013-5-22,60.6,54.3,49.5,49.8,44.9,36.2,93,72,44,30.14,30.07,8,4,12,0.00
2013-5-23,58.3,49.4,44.2,41.2,36.2,29.4,81,62,34,30.07,29.93,8,5,13,0.01
2013-5-24,50.2,45.4,43.0,49.6,42.5,38.4,99,90,79,30.05,29.67,13,5,20,0.34
2013-5-25,66.2,53.7,32.0,44.6,38.1,-18.3,99,62,10,30.21,30.06,16,3,98,0.00
2013-5-26,73.0,58.9,41.2,42.9,36.5,28.4,97,51,19,30.18,30.01,7,4,10,0.00
2013-5-27,65.7,56.5,43.0,45.3,39.5,33.4,82,55,30,30.01,29.68,16,7,20,0.00
2013-5-28,56.5,52.7,50.4,55.9,49.8,41.4,99,91,62,29.67,29.52,5,2,7,0.37
2013-5-29,59.5,52.9,46.9,55.5,50.5,46.7,99,92,68,29.81,29.61,5,3,9,0.06
2013-5-30,64.8,56.0,52.7,55.8,53.3,51.3,99,91,68,30.04,29.78,6,3,11,0.14
2013-5-31,77.5,62.8,52.7,55.4,52.7,50.8,95,72,41,30.15,30.03,5,3,9,0.00
2013-6-1,70.3,60.0,52.9,51.5,45.7,40.9,83,61,37,30.35,30.16,7,4,8,0.00
2013-6-2,73.8,60.8,46.6,49.2,41.4,33.5,92,54,24,30.49,30.35,6,3,11,0.00
2013-6-3,71.4,58.1,42.8,50.7,42.8,36.6,99,61,29,30.53,30.45,9,4,20,0.00
2013-6-4,76.5,61.5,46.6,46.9,41.4,38.6,80,51,26,30.48,30.25,12,6,17,0.00
2013-6-5,77.7,66.3,52.7,51.3,46.3,40.2,89,51,30,30.23,30.13,9,6,13,0.00
2013-6-6,76.1,61.8,49.3,52.4,47.9,45.2,92,64,39,30.23,30.17,10,7,16,0.00
2013-6-7,73.2,60.2,49.6,54.6,49.9,45.2,99,71,45,30.27,30.20,10,6,17,0.18
2013-6-8,69.4,58.7,49.1,47.5,46.4,44.3,91,66,41,30.26,30.11,11,7,17,0.00
2013-6-9,61.0,55.9,51.6,48.5,46.6,43.5,84,71,60,30.12,30.01,9,6,16,0.00
2013-6-10,64.4,56.4,51.8,48.8,45.1,42.4,77,66,50,30.05,30.00,5,3,8,0.00
2013-6-11,64.6,58.4,48.7,62.4,54.5,45.0,96,87,75,30.02,29.94,8,4,14,0.00
2013-6-12,64.4,60.9,58.3,61.8,58.7,55.4,99,92,78,29.95,29.86,14,9,21,0.06
2013-6-13,67.3,58.9,55.0,58.9,52.6,45.6,99,80,57,30.09,29.83,19,10,20,0.09
2013-6-14,69.1,57.2,49.3,53.3,48.5,32.8,92,75,26,30.11,29.86,11,5,16,0.01
2013-6-15,63.9,58.3,53.1,56.6,51.1,42.7,99,78,46,29.93,29.74,16,9,24,0.32
2013-6-16,71.6,60.0,53.4,51.6,49.4,45.8,91,70,44,30.01,29.93,8,5,14,0.00
2013-6-17,73.2,63.1,55.8,53.8,50.1,45.4,85,65,41,30.02,29.95,13,8,18,0.00
2013-6-18,74.5,65.1,57.0,63.7,58.5,52.6,92,79,60,30.02,29.94,9,4,12,0.00
2013-6-19,87.8,71.0,60.3,65.2,60.8,56.7,99,74,38,30.03,29.95,10,3,14,0.01
2013-6-20,75.6,66.7,61.7,64.6,61.4,57.8,97,84,64,30.00,29.83,7,4,11,0.00
2013-6-21,73.0,63.5,58.5,61.3,59.0,56.1,99,86,65,29.92,29.82,12,6,17,0.00
2013-6-22,66.4,59.6,54.0,57.9,54.1,51.7,99,83,64,29.92,29.71,18,12,27,0.40
2013-6-23,64.4,59.9,55.0,55.5,53.0,51.0,97,79,62,30.07,29.71,11,7,17,0.01
2013-6-24,66.9,58.7,52.7,51.3,45.4,40.4,89,63,41,30.34,30.08,7,4,12,0.00
2013-6-25,77.0,63.1,50.5,49.4,44.4,36.1,92,55,23,30.47,30.34,5,2,9,0.00
2013-6-26,76.1,63.6,49.5,51.7,47.9,43.3,94,60,35,30.48,30.40,5,3,10,0.00
2013-6-27,72.9,61.7,54.9,56.0,50.0,43.6,99,68,35,30.42,30.24,7,3,11,0.04
2013-6-28,70.5,62.5,54.9,64.9,60.0,54.6,99,92,80,30.23,30.09,7,4,12,0.07
2013-6-29,77.4,66.7,57.6,60.5,48.9,39.8,91,57,26,30.29,30.11,6,4,11,0.00
2013-6-30,82.4,70.7,60.3,60.5,57.2,51.8,96,65,37,30.29,30.10,11,5,17,0.00
2013-7-1,73.8,64.6,57.7,54.6,50.2,44.7,87,62,37,30.13,30.03,8,4,13,0.00
2013-7-2,65.1,59.9,53.8,57.0,51.9,47.9,89,75,55,30.04,29.71,11,5,17,0.00
2013-7-3,71.1,63.9,58.6,60.5,57.8,53.3,99,82,54,30.05,29.65,9,5,13,0.08
2013-7-4,79.3,66.4,54.9,63.2,59.1,53.5,99,79,54,30.30,30.06,10,6,50,0.00
2013-7-5,86.4,68.9,53.8,58.6,53.7,48.5,98,64,27,30.47,30.31,5,2,10,0.00
2013-7-6,90.9,72.0,53.4,63.2,53.1,43.4,96,58,21,30.47,30.38,5,2,8,0.00
2013-7-7,91.4,76.8,60.6,63.9,57.1,48.5,99,56,23,30.55,30.46,8,4,11,0.00
2013-7-8,88.5,72.6,60.6,61.3,55.1,49.9,86,58,30,30.57,30.46,10,6,15,0.00
2013-7-9,89.2,72.7,56.5,55.5,41.5,23.9,84,41,10,30.48,30.30,7,4,13,0.00
2013-7-10,81.1,71.6,55.8,58.2,53.5,47.3,85,55,37,30.34,30.27,8,4,18,0.00
2013-7-11,81.0,63.8,54.1,53.4,47.6,42.6,85,59,26,30.35,30.26,9,5,14,0.00
2013-7-12,85.3,66.0,54.0,57.9,52.8,49.9,87,66,33,30.35,30.25,5,2,8,0.00
2013-7-13,96.1,77.5,59.4,64.3,59.4,53.5,96,60,24,30.30,30.24,5,2,11,0.00
2013-7-14,90.5,76.6,63.0,63.6,57.3,49.6,89,56,27,30.30,30.20,6,2,11,0.00
2013-7-15,94.6,78.5,63.3,60.0,43.5,24.9,80,38,10,30.28,30.20,4,2,8,0.00
2013-7-16,92.3,78.4,63.9,60.3,55.8,46.7,83,50,22,30.26,30.19,8,3,11,0.00
2013-7-17,95.9,78.7,63.0,59.2,54.2,42.6,78,47,16,30.31,30.23,7,2,10,0.00
2013-7-18,91.4,76.1,63.5,60.6,56.7,48.8,83,55,24,30.36,30.29,10,4,17,0.00
2013-7-19,87.1,73.5,60.3,59.9,54.5,50.3,75,54,30,30.36,30.25,10,6,17,0.00
2013-7-20,79.3,68.9,62.6,61.8,60.6,57.6,95,76,51,30.30,30.20,9,6,16,0.00
2013-7-21,86.5,71.4,63.3,62.2,59.9,55.6,90,70,40,30.22,30.07,9,5,15,0.00
2013-7-22,95.7,79.0,64.6,66.2,60.3,49.6,99,60,21,30.09,29.97,6,4,11,0.00
2013-7-23,86.2,75.3,66.9,70.2,64.9,59.9,94,71,49,29.99,29.92,6,3,11,0.04
2013-7-24,83.5,71.8,59.9,61.5,59.0,53.0,95,67,35,30.02,29.96,10,5,14,0.00
2013-7-25,81.0,70.5,62.8,66.9,61.8,56.1,99,76,43,29.98,29.91,9,4,13,0.12
2013-7-26,84.7,71.1,57.7,59.9,55.6,50.6,98,63,32,29.97,29.88,6,3,11,0.00
2013-7-27,88.7,70.1,57.2,69.0,57.1,44.7,99,69,23,29.90,29.62,5,2,10,0.18
2013-7-28,76.8,68.2,59.4,63.4,59.4,55.2,99,76,50,29.83,29.63,12,7,20,0.04
2013-7-29,76.3,67.6,61.5,62.9,60.1,54.9,99,79,49,30.01,29.83,16,9,21,0.04
2013-7-30,71.8,64.8,60.4,66.2,62.7,59.6,99,93,79,30.02,29.90,8,5,14,0.12
2013-7-31,76.8,68.5,62.6,66.5,63.3,59.9,95,84,67,30.04,30.00,13,7,17,0.00
2013-8-1,96.8,76.2,61.9,67.9,63.1,54.0,99,70,24,29.99,29.71,8,3,14,0.00
2013-8-2,80.2,70.7,64.2,65.5,61.2,55.2,98,74,49,29.86,29.78,11,6,17,0.06
2013-8-3,77.4,67.4,59.9,61.9,57.2,52.1,99,73,43,30.15,29.86,14,8,20,0.12
2013-8-4,77.4,68.8,57.9,59.8,56.2,51.6,99,67,42,30.17,30.08,13,7,19,0.00
2013-8-5,76.6,67.2,61.5,65.0,60.2,55.4,99,80,54,30.08,29.81,11,4,16,0.20
2013-8-6,80.2,66.4,53.6,60.9,52.3,41.3,99,66,25,30.09,29.96,4,2,8,0.01
2013-8-7,78.4,67.2,55.8,60.3,51.4,45.5,98,61,33,30.08,29.96,8,2,16,0.00
2013-8-8,81.9,69.5,51.3,58.1,51.5,42.4,97,57,25,30.17,30.08,10,4,14,0.00
2013-8-9,80.6,69.0,61.3,63.9,55.1,46.5,99,65,31,30.23,30.07,8,5,11,0.08
2013-8-10,75.0,66.1,57.0,53.1,48.4,41.5,81,55,30,30.25,30.18,7,3,11,0.00
2013-8-11,78.6,67.1,61.3,59.3,52.7,44.6,85,62,30,30.18,30.05,7,4,11,0.00
2013-8-12,73.8,66.6,56.8,54.3,46.6,37.3,87,51,27,30.14,30.05,7,5,11,0.00
2013-8-13,72.9,63.1,51.1,58.6,50.7,44.3,97,67,37,30.26,30.14,7,4,10,0.01
2013-8-14,75.4,67.4,51.8,62.2,56.6,51.5,99,71,45,30.28,30.21,9,5,14,0.01
2013-8-15,63.5,63.1,62.4,63.2,62.8,62.2,99,99,99,30.20,30.16,3,2,4,0.00
2013-8-20,81.9,74.0,61.5,56.2,49.1,42.3,77,44,25,30.42,30.34,7,3,11,0.00
2013-8-21,84.4,68.6,53.6,58.3,53.5,47.8,96,64,28,30.36,30.19,6,3,15,0.00
2013-8-22,78.3,66.7,62.1,69.3,64.1,59.0,99,92,65,30.21,30.10,6,2,8,0.34
2013-8-23,86.7,71.9,61.0,65.1,60.7,52.4,99,73,35,30.10,29.90,5,3,8,0.00
2013-8-24,68.2,66.7,66.6,64.3,63.3,63.2,89,89,87,29.89,29.88,3,0,5,0.00
2013-8-25,66.6,66.6,66.6,63.2,63.2,63.2,89,89,89,29.88,29.88,0,0,1,0.00
2013-8-26,66.6,66.6,66.6,63.2,63.2,63.2,89,89,89,29.88,29.88,0,0,1,0.00
2013-8-27,77.5,69.1,61.9,67.3,64.3,61.6,99,85,66,29.53,29.39,17,6,17,0.00
2013-8-28,96.8,80.3,64.2,68.1,61.8,53.6,97,57,24,29.39,29.19,14,5,14,0.04
2013-8-29,81.3,68.4,59.9,66.0,61.2,54.8,99,80,47,29.43,29.29,13,6,13,0.13
2013-8-31,77.9,67.1,56.5,43.6,39.8,35.8,62,39,22,29.93,29.82,6,3,9,0.01
2013-9-1,70.2,59.2,48.6,53.2,47.9,43.8,88,67,42,29.98,29.69,5,3,8,0.00
2013-9-2,84.2,67.0,52.2,60.0,55.4,51.9,99,70,38,29.71,29.64,6,3,10,0.00
2013-9-3,89.1,68.6,56.7,62.9,60.1,56.4,99,77,38,29.72,29.62,3,1,5,0.00
2013-9-4,90.9,70.8,54.0,64.9,57.2,52.4,99,68,28,29.63,29.36,6,2,9,0.00
2013-9-5,91.2,73.0,57.6,65.5,58.3,48.7,99,66,31,29.35,29.10,4,2,9,0.00
2013-9-6,68.2,61.3,55.8,61.1,56.2,51.5,99,84,64,29.19,29.08,6,3,9,0.15
2013-9-7,67.3,58.5,51.1,56.6,50.8,47.1,97,77,50,29.40,29.19,11,4,17,0.02
2013-9-8,66.0,54.2,46.0,53.6,49.3,45.8,99,85,51,29.43,29.40,11,3,15,0.06
2013-9-9,58.5,53.1,45.9,57.6,52.7,45.6,99,99,96,29.41,29.32,6,1,8,0.09
2013-9-10,67.1,56.6,47.7,52.7,50.0,46.9,99,81,52,29.51,29.40,8,4,14,0.01
2013-9-11,64.2,58.3,54.3,56.0,51.7,48.6,99,80,61,29.53,29.47,7,4,11,0.08
2013-9-12,68.0,60.2,55.2,61.3,57.4,55.0,99,91,71,29.47,29.43,4,2,8,0.05
2013-9-13,77.4,66.3,61.2,67.7,60.4,52.5,99,85,42,29.83,29.40,16,4,16,2.94
2013-9-14,62.2,53.5,47.1,62.0,52.3,46.3,99,96,83,29.83,29.61,5,2,9,0.17
2013-9-15,61.3,53.6,42.4,60.9,51.0,42.2,99,92,62,29.82,29.30,13,6,19,0.12
2013-9-16,63.5,54.4,47.5,51.4,43.4,37.9,90,69,42,29.40,29.33,11,6,17,0.01
2013-9-17,59.5,53.6,46.8,59.3,50.3,43.9,99,89,67,29.40,29.09,7,3,11,0.13
2013-9-18,63.5,57.1,50.4,56.9,49.9,44.0,99,78,55,29.62,29.15,7,3,11,0.01
2013-9-19,62.6,54.8,45.5,61.6,52.2,44.4,98,91,71,29.66,29.49,14,4,21,0.04
2013-9-20,73.9,58.7,47.3,53.9,50.8,47.0,99,78,42,29.94,29.63,5,2,8,0.00
2013-9-21,66.0,59.3,50.5,63.0,56.7,49.7,99,91,81,30.07,29.94,9,3,10,0.00
2013-9-22,67.3,63.2,55.4,63.6,61.6,54.9,99,94,85,30.13,30.06,3,1,4,0.00
2013-9-23,76.5,61.5,53.1,61.7,58.6,52.8,99,91,59,30.10,29.88,3,1,5,0.00
2013-9-24,78.6,61.5,48.7,63.2,56.7,48.5,99,86,55,29.87,29.68,4,1,7,0.00
2013-9-25,79.2,64.7,55.2,63.0,59.1,54.5,99,84,51,29.68,29.58,4,1,5,0.00
2013-9-26,74.7,62.6,55.4,60.8,54.8,49.2,94,78,43,29.81,29.65,7,4,12,0.00
2013-9-27,70.7,57.5,48.6,54.4,51.4,48.0,99,82,51,29.82,29.67,8,4,12,0.00
2013-9-28,69.1,60.4,53.1,60.0,55.5,51.1,96,84,65,29.68,29.49,10,6,17,0.00
2013-9-29,68.0,60.8,57.9,56.7,55.1,53.9,90,82,63,29.49,29.46,10,6,16,0.00
2013-9-30,68.7,60.4,55.6,57.9,55.0,51.1,96,83,58,29.54,29.43,8,4,11,0.00
2013-10-1,71.6,59.4,51.4,58.8,54.2,50.3,97,84,54,30.05,29.51,7,3,9,3.37
2013-10-2,76.6,63.7,58.3,64.2,58.8,53.7,95,85,63,29.88,29.78,4,2,8,0.00
2013-10-3,67.8,62.2,55.6,64.2,60.5,55.3,99,94,86,29.88,29.70,5,2,8,0.01
2013-10-4,70.9,65.1,59.9,64.9,61.6,58.2,96,89,69,29.95,29.68,13,6,19,0.01
2013-10-5,68.2,61.0,55.2,61.1,57.6,53.6,96,89,75,30.25,29.94,3,1,4,0.00
2013-10-6,74.5,58.6,45.0,56.8,50.5,44.7,99,78,41,30.31,30.25,7,1,8,0.00
2013-10-7,70.2,58.6,46.4,60.5,54.4,45.6,99,87,61,30.31,30.25,6,2,11,0.00
2013-10-8,74.1,63.7,55.2,61.1,58.8,53.8,97,85,58,30.29,30.23,6,3,11,0.00
2013-10-9,66.0,58.1,48.9,60.0,51.9,40.6,94,81,61,30.24,29.99,8,4,14,0.00
2013-10-10,55.2,49.7,46.2,44.1,40.6,38.9,81,71,55,30.12,30.01,8,6,14,0.00
2013-10-11,61.5,53.8,47.5,54.5,50.8,41.5,95,90,63,30.12,29.95,16,5,16,0.24
2013-10-12,67.3,54.0,47.3,54.3,50.0,44.4,97,88,44,30.11,29.95,10,4,10,0.05
2013-10-13,53.4,50.8,48.0,52.6,49.6,46.7,98,96,94,30.01,29.78,6,4,11,0.40
2013-10-14,55.6,50.2,48.0,50.6,48.3,46.9,97,93,81,29.78,29.71,7,4,11,0.12
2013-10-15,61.0,50.8,45.0,53.4,47.9,43.3,96,90,76,29.96,29.74,4,2,8,0.01
2013-10-16,67.6,51.7,41.4,61.3,49.3,40.8,99,92,76,29.97,29.69,10,3,14,0.04
2013-10-17,57.4,56.5,55.6,55.1,54.1,53.3,92,92,91,29.91,29.82,10,7,15,0.01
2013-10-21,68.4,61.9,57.2,60.8,58.3,54.9,93,88,74,29.58,29.44,24,6,24,0.04
2013-10-22,68.2,63.1,58.1,62.5,59.5,54.9,92,88,82,29.43,29.16,18,6,18,0.12
2013-10-23,67.8,59.2,47.8,58.9,54.0,45.9,93,84,57,29.69,29.07,20,7,20,0.19
2013-10-24,71.2,54.1,41.2,60.3,49.5,39.9,96,86,57,29.81,29.64,8,2,8,0.00
2013-10-25,68.4,62.0,57.2,62.4,57.9,54.9,93,87,76,29.64,29.42,19,7,19,0.06
2013-10-26,66.0,61.2,59.0,58.8,57.2,55.4,92,87,74,29.53,29.32,21,11,21,0.08
2013-10-27,64.4,58.1,54.1,57.0,52.7,49.5,94,83,60,29.32,29.08,24,10,24,0.35
2013-10-28,77.4,63.1,48.0,59.7,51.8,45.5,93,70,42,30.51,28.72,26,11,38,9.38
2013-10-29,60.8,50.0,43.9,47.9,44.1,40.9,94,82,50,30.49,30.01,8,4,13,0.00
2013-10-30,61.5,46.2,34.5,49.9,41.3,33.5,97,85,54,30.61,30.50,7,2,11,0.00
2013-10-31,59.4,55.5,53.1,56.4,53.2,51.1,94,92,87,30.32,29.98,11,3,11,0.07
2013-11-1,62.1,54.0,50.9,55.6,51.5,49.2,98,91,71,30.00,29.85,17,3,17,0.01
2013-11-2,59.2,51.6,46.2,53.6,44.3,40.7,89,76,66,29.97,29.82,22,10,22,0.18
2013-11-3,59.0,50.5,46.2,48.1,44.2,41.2,97,80,55,30.01,29.42,15,6,15,0.30
2013-11-4,57.0,45.7,37.4,45.2,40.7,36.1,98,85,51,29.92,29.41,10,3,10,0.08
2013-11-5,58.1,48.4,40.1,54.2,45.5,38.8,97,90,69,29.89,29.67,10,4,14,0.93
2013-11-6,50.4,50.4,50.4,45.1,45.1,45.1,82,82,82,29.88,29.88,4,4,7,0.00
2013-11-7,50.4,50.4,50.4,45.1,45.1,45.1,82,82,82,29.88,29.88,4,4,7,0.00
2013-11-8,59.9,49.5,43.2,56.2,46.1,42.2,97,88,77,30.15,29.88,5,3,8,0.45
2013-11-9,46.8,42.7,36.9,45.4,41.5,35.8,97,96,94,30.20,30.03,5,2,8,0.12
2013-11-10,57.7,43.9,33.1,43.6,38.6,32.1,97,84,46,30.71,30.04,5,2,8,0.01
2013-11-11,56.5,49.6,33.1,55.6,48.0,32.1,97,94,92,30.70,30.57,9,4,17,0.06
2013-11-12,61.9,51.6,38.8,56.0,49.5,37.5,99,93,65,30.95,30.58,5,2,11,0.05
2013-11-13,59.0,43.8,32.5,46.5,39.9,32.3,99,87,59,31.01,30.65,9,3,14,0.01
2013-11-14,53.4,47.4,40.5,47.1,42.1,37.8,93,82,61,30.84,30.55,9,5,17,0.00
2013-11-15,57.4,43.8,35.6,42.5,37.9,33.4,96,81,54,30.97,30.85,8,2,8,0.00
2013-11-16,56.1,42.2,30.7,47.6,39.4,30.3,98,90,62,30.96,30.81,4,1,6,0.00
2013-11-17,50.5,48.3,46.2,48.2,46.4,44.6,95,93,90,30.80,30.45,3,1,4,0.01
2013-11-18,50.5,48.1,45.0,49.0,47.0,43.6,99,96,92,30.44,30.18,3,2,7,0.02
2013-11-19,49.3,39.9,30.9,43.4,34.6,29.4,98,83,51,30.49,30.22,6,3,11,0.01
2013-11-20,46.9,38.7,29.1,44.6,36.6,28.3,97,92,81,30.47,29.82,12,5,16,0.25
2013-11-21,51.4,42.3,37.9,41.8,38.7,35.3,97,88,58,30.35,29.84,9,4,19,0.01
2013-11-22,52.7,42.5,37.2,40.0,37.9,35.2,95,85,60,30.58,30.35,6,3,12,0.00
2013-11-23,52.5,40.6,36.1,46.0,38.4,35.1,99,92,69,30.74,30.58,6,2,10,0.00
2013-11-24,48.7,44.8,41.0,45.0,41.2,37.2,93,87,70,31.00,30.74,5,3,10,0.01
2013-11-25,49.8,43.4,41.2,41.5,39.5,38.1,93,86,73,31.12,31.00,5,3,8,0.00
2013-11-26,52.7,43.5,35.8,40.1,37.4,34.0,94,80,59,31.14,31.02,3,2,6,0.00
2013-11-27,51.4,47.1,43.0,49.5,45.3,41.0,95,93,90,31.01,30.92,3,1,4,0.01
2013-11-28,51.8,49.4,47.8,49.0,47.5,46.2,95,93,89,31.00,30.95,2,1,4,0.00
2013-11-29,52.0,48.1,44.4,46.4,43.6,39.0,95,85,69,30.96,30.60,7,4,13,0.01
2013-11-30,54.5,44.7,37.9,43.0,39.4,36.0,95,82,63,30.90,30.62,6,3,11,0.00
2013-12-1,51.4,42.7,34.5,45.9,40.5,33.5,96,92,78,30.99,30.88,3,1,4,0.00
2013-12-2,50.7,46.1,41.9,47.8,43.0,39.5,96,89,77,31.00,30.89,3,1,6,0.00
2013-12-3,45.1,43.8,42.1,42.4,38.9,36.6,94,83,77,30.88,30.76,4,2,6,0.00
2013-12-4,49.8,42.8,34.7,46.5,39.0,33.3,96,87,64,30.93,30.73,5,3,8,0.00
2013-12-5,51.8,42.8,32.2,46.7,37.0,31.2,96,81,56,30.92,30.45,15,7,24,0.08
2013-12-6,51.3,43.2,34.7,43.9,37.2,32.6,93,80,58,30.82,30.68,6,3,10,0.00
2013-12-7,49.6,46.7,44.1,46.4,44.5,42.4,94,92,82,30.79,30.70,6,3,10,0.00
2013-12-8,57.4,48.5,40.8,48.3,45.1,39.5,95,88,70,30.75,30.68,9,5,17,0.00
2013-12-9,56.7,46.3,37.6,49.6,43.9,36.0,96,91,77,30.85,30.74,8,3,13,0.00
2013-12-10,52.0,39.8,31.5,49.3,38.2,31.0,98,94,85,30.90,30.84,5,1,8,0.01
2013-12-11,46.4,33.6,30.4,44.8,32.8,29.9,99,97,92,30.87,30.74,1,0,3,0.00
2013-12-12,53.4,39.3,29.7,50.0,38.2,29.4,99,96,83,30.74,30.63,8,1,8,0.01
2013-12-13,54.3,51.5,46.6,50.4,48.9,44.9,95,91,80,30.63,30.46,9,4,14,0.05
2013-12-14,54.1,48.0,38.7,50.0,44.8,37.4,95,89,74,30.73,30.49,19,9,27,0.21
2013-12-15,55.4,53.2,46.2,53.4,51.0,44.3,93,92,89,30.59,30.44,17,10,24,0.27
2013-12-16,55.9,53.2,46.9,54.0,51.2,45.3,94,93,91,30.54,30.38,18,10,27,0.54
2013-12-17,46.0,43.4,40.6,44.7,42.1,39.6,97,95,93,30.71,30.41,4,1,8,0.18
2013-12-18,52.3,48.1,42.4,49.7,46.1,41.4,97,93,87,30.41,29.73,19,8,30,0.79
2013-12-19,52.5,45.1,38.8,48.2,40.7,37.2,94,86,57,30.27,29.74,10,5,13,0.11
2013-12-20,52.3,45.7,37.8,47.7,41.5,36.2,96,86,69,30.61,30.29,20,9,28,0.22
2013-12-21,54.9,52.3,50.2,52.2,49.6,45.8,93,91,80,30.49,30.15,26,16,32,1.95
2013-12-22,54.7,48.2,41.9,47.3,42.3,37.4,91,80,62,30.35,30.15,18,8,26,0.04
2013-12-23,53.8,49.7,42.6,51.8,47.0,38.4,93,90,85,30.35,29.32,25,14,39,11.28
2013-12-24,53.6,47.9,42.6,51.6,44.8,40.3,94,89,78,29.42,29.23,28,11,45,5.59
2013-12-25,42.4,42.4,42.4,40.8,40.8,40.8,94,94,94,29.35,29.35,5,5,8,0.00
2013-12-26,42.4,42.4,42.4,40.8,40.8,40.8,94,94,94,29.35,29.35,5,5,8,0.00
2013-12-27,54.9,46.8,41.9,47.1,41.2,37.1,92,81,60,30.06,29.86,19,8,19,0.04
2013-12-28,54.0,51.9,35.1,52.0,49.6,33.8,95,92,87,29.87,28.93,45,18,45,17.39
2013-12-29,51.3,40.4,31.6,44.2,37.4,31.1,98,89,67,30.22,29.85,8,3,13,0.00
2013-12-30,53.1,49.1,43.2,50.0,46.2,41.6,94,90,79,30.15,29.81,20,10,31,1.11
2013-12-31,52.7,47.8,42.4,49.6,45.5,40.6,94,92,89,29.99,29.68,14,6,21,0.18
2014-1-1,53.8,49.1,44.1,51.2,46.9,41.9,94,92,85,29.72,29.15,16,11,26,1.03
2014-1-2,54.9,50.9,44.1,49.1,45.3,42.4,94,82,68,29.58,29.20,13,7,17,0.19